createdAt,value
2022-09-03T00:00:56.079Z,17.79
2022-09-03T00:01:56.156Z,17.79
2022-09-03T00:02:56.127Z,17.8
2022-09-03T00:03:56.087Z,17.8
2022-09-03T00:04:56.134Z,17.8
2022-09-03T00:05:56.155Z,17.77
2022-09-03T00:06:56.207Z,17.74
2022-09-03T00:07:56.127Z,17.71
2022-09-03T00:08:57.208Z,17.68
2022-09-03T00:09:56.138Z,17.67
2022-09-03T00:10:56.550Z,17.64
2022-09-03T00:11:56.388Z,17.65
2022-09-03T00:12:55.799Z,17.64
2022-09-03T00:13:56.225Z,17.63
2022-09-03T00:14:56.547Z,17.62
2022-09-03T00:15:56.869Z,17.64
2022-09-03T00:16:56.082Z,17.66
2022-09-03T00:17:56.101Z,17.67
2022-09-03T00:18:56.312Z,17.67
2022-09-03T00:19:56.133Z,17.66
2022-09-03T00:20:56.092Z,17.67
2022-09-03T00:21:56.106Z,17.65
2022-09-03T00:22:56.080Z,17.65
2022-09-03T00:23:56.091Z,17.65
2022-09-03T00:24:56.093Z,17.65
2022-09-03T00:25:56.084Z,17.62
2022-09-03T00:26:56.116Z,17.6
2022-09-03T00:27:56.111Z,17.57
2022-09-03T00:28:59.087Z,17.55
2022-09-03T00:29:56.127Z,17.52
2022-09-03T00:30:56.125Z,17.51
2022-09-03T00:31:56.100Z,17.48
2022-09-03T00:32:56.092Z,17.45
2022-09-03T00:33:56.097Z,17.44
2022-09-03T00:34:56.140Z,17.44
2022-09-03T00:35:56.083Z,17.44
2022-09-03T00:36:56.232Z,17.43
2022-09-03T00:37:56.252Z,17.42
2022-09-03T00:38:56.268Z,17.38
2022-09-03T00:39:56.206Z,17.34
2022-09-03T00:40:56.264Z,17.29
2022-09-03T00:41:56.589Z,17.1
2022-09-03T00:42:56.458Z,16.98
2022-09-03T00:43:56.770Z,16.86
2022-09-03T00:44:56.328Z,16.71
2022-09-03T00:45:56.644Z,16.62
2022-09-03T00:46:56.245Z,16.55
2022-09-03T00:47:56.525Z,16.49
2022-09-03T00:48:56.286Z,16.42
2022-09-03T00:49:56.218Z,16.36
2022-09-03T00:50:56.167Z,16.35
2022-09-03T00:51:56.286Z,16.31
2022-09-03T00:52:56.418Z,16.29
2022-09-03T00:53:56.103Z,16.27
2022-09-03T00:54:56.175Z,16.26
2022-09-03T00:55:56.495Z,16.25
2022-09-03T00:56:56.517Z,16.24
2022-09-03T00:57:56.970Z,16.22
2022-09-03T00:58:56.342Z,16.23
2022-09-03T00:59:56.090Z,16.21
2022-09-03T01:00:56.366Z,16.2
2022-09-03T01:01:56.675Z,16.19
2022-09-03T01:02:57.406Z,16.18
2022-09-03T01:03:56.200Z,16.18
2022-09-03T01:04:56.082Z,16.19
2022-09-03T01:06:01.046Z,16.17
2022-09-03T01:06:56.375Z,16.17
2022-09-03T01:07:56.094Z,16.16
2022-09-03T01:08:56.052Z,16.13
2022-09-03T01:09:56.085Z,16.12
2022-09-03T01:10:56.349Z,16.12
2022-09-03T01:11:56.336Z,16.16
2022-09-03T01:12:56.296Z,16.18
2022-09-03T01:13:56.256Z,16.2
2022-09-03T01:14:56.073Z,16.21
2022-09-03T01:15:56.102Z,16.21
2022-09-03T01:16:56.067Z,16.17
2022-09-03T01:17:56.081Z,16.17
2022-09-03T01:18:56.086Z,16.17
2022-09-03T01:19:56.065Z,16.19
2022-09-03T01:20:56.098Z,16.2
2022-09-03T01:21:56.099Z,16.2
2022-09-03T01:22:56.102Z,16.21
2022-09-03T01:23:56.231Z,16.2
2022-09-03T01:24:56.092Z,16.17
2022-09-03T01:25:56.069Z,16.16
2022-09-03T01:26:56.066Z,16.14
2022-09-03T01:27:56.067Z,16.14
2022-09-03T01:28:56.113Z,16.14
2022-09-03T01:29:56.090Z,16.13
2022-09-03T01:30:56.113Z,16.11
2022-09-03T01:31:56.075Z,16.11
2022-09-03T01:32:56.082Z,16.12
2022-09-03T01:33:56.171Z,16.17
2022-09-03T01:34:56.083Z,16.2
2022-09-03T01:35:56.064Z,16.23
2022-09-03T01:36:56.076Z,16.23
2022-09-03T01:37:56.090Z,16.21
2022-09-03T01:38:56.121Z,16.19
2022-09-03T01:39:56.105Z,16.16
2022-09-03T01:40:56.111Z,16.13
2022-09-03T01:41:56.101Z,16.06
2022-09-03T01:42:56.090Z,16.01
2022-09-03T01:43:56.202Z,16.02
2022-09-03T01:44:56.314Z,16.02
2022-09-03T01:45:56.151Z,16.01
2022-09-03T01:46:56.078Z,15.99
2022-09-03T01:47:56.086Z,15.98
2022-09-03T01:48:56.064Z,15.97
2022-09-03T01:49:56.173Z,15.98
2022-09-03T01:50:56.067Z,15.96
2022-09-03T01:51:56.077Z,15.92
2022-09-03T01:52:57.101Z,15.9
2022-09-03T01:53:56.113Z,15.88
2022-09-03T01:54:56.246Z,15.9
2022-09-03T01:55:56.278Z,15.9
2022-09-03T01:56:56.095Z,15.88
2022-09-03T01:57:56.103Z,15.86
2022-09-03T01:58:56.127Z,15.81
2022-09-03T01:59:56.069Z,15.86
2022-09-03T02:00:56.086Z,15.92
2022-09-03T02:01:56.128Z,15.94
2022-09-03T02:02:56.116Z,15.94
2022-09-03T02:03:56.102Z,15.89
2022-09-03T02:04:56.086Z,15.8
2022-09-03T02:05:56.181Z,15.69
2022-09-03T02:06:56.108Z,15.58
2022-09-03T02:07:56.064Z,15.45
2022-09-03T02:08:56.089Z,15.34
2022-09-03T02:09:56.065Z,15.29
2022-09-03T02:10:56.092Z,15.3
2022-09-03T02:11:56.089Z,15.36
2022-09-03T02:12:56.087Z,15.45
2022-09-03T02:13:56.123Z,15.54
2022-09-03T02:14:56.080Z,15.59
2022-09-03T02:15:56.187Z,15.63
2022-09-03T02:16:56.196Z,15.63
2022-09-03T02:17:56.163Z,15.62
2022-09-03T02:18:56.114Z,15.6
2022-09-03T02:19:56.082Z,15.6
2022-09-03T02:20:56.091Z,15.61
2022-09-03T02:21:56.095Z,15.59
2022-09-03T02:22:56.067Z,15.58
2022-09-03T02:23:56.074Z,15.57
2022-09-03T02:24:56.368Z,15.56
2022-09-03T02:25:56.415Z,15.54
2022-09-03T02:26:56.272Z,15.51
2022-09-03T02:27:56.617Z,15.47
2022-09-03T02:28:56.874Z,15.42
2022-09-03T02:29:56.918Z,15.37
2022-09-03T02:30:57.183Z,15.32
2022-09-03T02:31:56.068Z,15.28
2022-09-03T02:32:56.272Z,15.24
2022-09-03T02:33:56.073Z,15.25
2022-09-03T02:34:56.075Z,15.24
2022-09-03T02:35:56.090Z,15.25
2022-09-03T02:36:56.100Z,15.26
2022-09-03T02:37:56.081Z,15.25
2022-09-03T02:38:56.258Z,15.22
2022-09-03T02:39:56.136Z,15.19
2022-09-03T02:40:56.089Z,15.2
2022-09-03T02:41:56.057Z,15.17
2022-09-03T02:42:56.070Z,15.14
2022-09-03T02:43:56.081Z,15.11
2022-09-03T02:44:56.091Z,15.08
2022-09-03T02:45:56.149Z,15.05
2022-09-03T02:46:56.097Z,15
2022-09-03T02:47:56.087Z,14.96
2022-09-03T02:48:56.114Z,14.91
2022-09-03T02:49:56.098Z,14.87
2022-09-03T02:50:56.071Z,14.91
2022-09-03T02:51:56.071Z,14.94
2022-09-03T02:52:56.058Z,14.98
2022-09-03T02:53:56.134Z,15.04
2022-09-03T02:54:56.065Z,15.12
2022-09-03T02:55:56.083Z,15.19
2022-09-03T02:56:56.101Z,15.26
2022-09-03T02:57:56.063Z,15.3
2022-09-03T02:58:56.097Z,15.34
2022-09-03T02:59:56.084Z,15.35
2022-09-03T03:00:56.147Z,15.36
2022-09-03T03:01:56.104Z,15.35
2022-09-03T03:02:56.089Z,15.36
2022-09-03T03:03:56.094Z,15.36
2022-09-03T03:04:56.058Z,15.36
2022-09-03T03:05:56.090Z,15.36
2022-09-03T03:06:56.087Z,15.36
2022-09-03T03:07:56.097Z,15.38
2022-09-03T03:08:56.086Z,15.38
2022-09-03T03:09:56.098Z,15.38
2022-09-03T03:10:56.106Z,15.38
2022-09-03T03:11:56.077Z,15.36
2022-09-03T03:12:56.097Z,15.32
2022-09-03T03:13:56.074Z,15.32
2022-09-03T03:14:56.066Z,15.29
2022-09-03T03:15:56.077Z,15.28
2022-09-03T03:16:56.167Z,15.27
2022-09-03T03:17:56.085Z,15.24
2022-09-03T03:18:56.078Z,15.21
2022-09-03T03:19:56.097Z,15.2
2022-09-03T03:20:56.080Z,15.17
2022-09-03T03:21:56.199Z,15.14
2022-09-03T03:22:56.158Z,15.11
2022-09-03T03:23:56.449Z,15.09
2022-09-03T03:24:56.548Z,15.06
2022-09-03T03:25:56.448Z,15.01
2022-09-03T03:26:56.703Z,14.97
2022-09-03T03:27:56.045Z,14.94
2022-09-03T03:28:56.434Z,14.89
2022-09-03T03:29:56.610Z,14.86
2022-09-03T03:30:56.102Z,14.82
2022-09-03T03:31:56.106Z,14.78
2022-09-03T03:32:56.077Z,14.74
2022-09-03T03:33:56.093Z,14.71
2022-09-03T03:34:56.180Z,14.69
2022-09-03T03:35:56.082Z,14.67
2022-09-03T03:36:56.115Z,14.62
2022-09-03T03:37:56.077Z,14.56
2022-09-03T03:38:56.095Z,14.5
2022-09-03T03:39:56.157Z,14.42
2022-09-03T03:40:56.069Z,14.34
2022-09-03T03:41:56.082Z,14.26
2022-09-03T03:42:56.195Z,14.18
2022-09-03T03:43:56.064Z,14.13
2022-09-03T03:44:56.134Z,14.07
2022-09-03T03:45:56.116Z,14
2022-09-03T03:46:56.078Z,13.95
2022-09-03T03:47:56.207Z,13.9
2022-09-03T03:48:56.414Z,13.88
2022-09-03T03:49:56.186Z,13.87
2022-09-03T03:50:56.376Z,13.86
2022-09-03T03:51:56.172Z,13.87
2022-09-03T03:52:56.492Z,13.87
2022-09-03T03:53:56.150Z,13.87
2022-09-03T03:54:56.431Z,13.91
2022-09-03T03:55:56.777Z,13.92
2022-09-03T03:56:57.056Z,13.92
2022-09-03T03:57:56.101Z,13.92
2022-09-03T03:58:56.154Z,13.94
2022-09-03T03:59:56.076Z,13.95
2022-09-03T04:00:56.246Z,13.96
2022-09-03T04:01:56.253Z,13.95
2022-09-03T04:02:56.152Z,13.94
2022-09-03T04:03:57.125Z,13.93
2022-09-03T04:04:56.317Z,13.91
2022-09-03T04:05:56.505Z,13.9
2022-09-03T04:06:56.757Z,13.9
2022-09-03T04:07:56.349Z,13.9
2022-09-03T04:08:56.546Z,13.91
2022-09-03T04:09:56.273Z,13.94
2022-09-03T04:10:56.196Z,13.95
2022-09-03T04:11:56.513Z,13.97
2022-09-03T04:12:56.192Z,13.97
2022-09-03T04:13:56.459Z,14
2022-09-03T04:14:56.098Z,14.01
2022-09-03T04:15:56.372Z,14.03
2022-09-03T04:16:56.213Z,14.04
2022-09-03T04:17:56.334Z,14.06
2022-09-03T04:18:56.186Z,14.06
2022-09-03T04:19:56.070Z,14.09
2022-09-03T04:20:56.063Z,14.08
2022-09-03T04:21:56.332Z,14.08
2022-09-03T04:22:56.086Z,14.09
2022-09-03T04:23:56.246Z,14.1
2022-09-03T04:24:56.101Z,14.13
2022-09-03T04:25:56.076Z,14.15
2022-09-03T04:26:56.105Z,14.15
2022-09-03T04:27:57.197Z,14.15
2022-09-03T04:28:56.107Z,14.15
2022-09-03T04:29:56.087Z,14.13
2022-09-03T04:30:56.229Z,14.13
2022-09-03T04:31:56.064Z,14.12
2022-09-03T04:32:56.082Z,14.13
2022-09-03T04:33:56.097Z,14.13
2022-09-03T04:34:56.085Z,14.12
2022-09-03T04:35:56.082Z,14.1
2022-09-03T04:36:56.090Z,14.09
2022-09-03T04:37:56.092Z,14.07
2022-09-03T04:38:56.223Z,14.05
2022-09-03T04:39:56.132Z,14.04
2022-09-03T04:40:56.067Z,14.02
2022-09-03T04:41:56.068Z,14.01
2022-09-03T04:42:56.076Z,14
2022-09-03T04:43:56.090Z,13.98
2022-09-03T04:44:56.078Z,13.97
2022-09-03T04:45:56.118Z,13.95
2022-09-03T04:46:56.077Z,13.92
2022-09-03T04:47:56.097Z,13.91
2022-09-03T04:48:56.187Z,13.91
2022-09-03T04:49:56.112Z,13.88
2022-09-03T04:50:56.217Z,13.89
2022-09-03T04:51:56.100Z,13.87
2022-09-03T04:52:56.055Z,13.88
2022-09-03T04:53:56.096Z,13.88
2022-09-03T04:54:56.078Z,13.89
2022-09-03T04:55:56.110Z,13.9
2022-09-03T04:56:56.092Z,13.95
2022-09-03T04:57:56.071Z,13.99
2022-09-03T04:58:56.084Z,14.02
2022-09-03T04:59:56.072Z,14.02
2022-09-03T05:00:56.176Z,14.02
2022-09-03T05:01:56.120Z,14.02
2022-09-03T05:02:56.065Z,14.02
2022-09-03T05:03:56.090Z,14.02
2022-09-03T05:04:56.075Z,14.03
2022-09-03T05:05:56.115Z,14.03
2022-09-03T05:06:56.083Z,14.03
2022-09-03T05:07:56.093Z,14.02
2022-09-03T05:08:56.095Z,14.01
2022-09-03T05:09:56.074Z,14.03
2022-09-03T05:10:56.091Z,14.02
2022-09-03T05:11:56.112Z,14.02
2022-09-03T05:12:56.099Z,14
2022-09-03T05:13:56.086Z,13.99
2022-09-03T05:14:56.085Z,13.98
2022-09-03T05:15:56.122Z,13.99
2022-09-03T05:16:56.085Z,14
2022-09-03T05:17:56.100Z,14
2022-09-03T05:18:56.070Z,14
2022-09-03T05:19:56.078Z,14
2022-09-03T05:20:56.084Z,13.98
2022-09-03T05:21:56.105Z,14
2022-09-03T05:22:56.231Z,14
2022-09-03T05:23:56.102Z,14
2022-09-03T05:24:56.071Z,14
2022-09-03T05:25:56.058Z,14.01
2022-09-03T05:26:56.075Z,14
2022-09-03T05:27:56.110Z,14.04
2022-09-03T05:28:56.099Z,14.09
2022-09-03T05:29:56.098Z,14.22
2022-09-03T05:30:56.071Z,14.37
2022-09-03T05:31:56.164Z,14.49
2022-09-03T05:32:56.100Z,14.59
2022-09-03T05:33:56.090Z,14.74
2022-09-03T05:34:56.064Z,14.86
2022-09-03T05:35:56.080Z,14.89
2022-09-03T05:36:56.062Z,14.98
2022-09-03T05:37:56.072Z,14.95
2022-09-03T05:38:56.067Z,14.93
2022-09-03T05:39:56.346Z,14.82
2022-09-03T05:40:56.060Z,14.79
2022-09-03T05:41:56.150Z,14.79
2022-09-03T05:42:56.167Z,14.84
2022-09-03T05:43:56.475Z,14.99
2022-09-03T05:44:56.072Z,15.18
2022-09-03T05:45:56.210Z,15.37
2022-09-03T05:46:56.126Z,15.59
2022-09-03T05:47:56.357Z,15.8
2022-09-03T05:48:56.082Z,15.83
2022-09-03T05:49:56.112Z,15.94
2022-09-03T05:50:56.086Z,16.13
2022-09-03T05:51:56.111Z,16.2
2022-09-03T05:52:56.078Z,16.32
2022-09-03T05:53:56.068Z,16.36
2022-09-03T05:54:56.091Z,16.44
2022-09-03T05:55:56.064Z,16.44
2022-09-03T05:56:56.082Z,16.53
2022-09-03T05:57:56.061Z,16.63
2022-09-03T05:58:56.071Z,16.7
2022-09-03T05:59:56.075Z,16.75
2022-09-03T06:00:56.075Z,16.65
2022-09-03T06:02:00.186Z,16.71
2022-09-03T06:02:56.166Z,16.67
2022-09-03T06:03:56.169Z,16.72
2022-09-03T06:04:56.083Z,16.77
2022-09-03T06:05:56.068Z,16.79
2022-09-03T06:06:56.080Z,16.73
2022-09-03T06:07:56.068Z,16.72
2022-09-03T06:08:56.073Z,16.68
2022-09-03T06:09:56.075Z,16.88
2022-09-03T06:10:56.074Z,17.13
2022-09-03T06:11:59.455Z,17.17
2022-09-03T06:12:56.109Z,17.19
2022-09-03T06:13:56.279Z,17.33
2022-09-03T06:14:57.087Z,17.39
2022-09-03T06:15:56.107Z,17.38
2022-09-03T06:16:56.101Z,17.45
2022-09-03T06:17:56.067Z,17.59
2022-09-03T06:18:56.079Z,17.54
2022-09-03T06:19:56.068Z,17.63
2022-09-03T06:20:56.092Z,17.65
2022-09-03T06:21:56.099Z,17.89
2022-09-03T06:22:56.259Z,17.86
2022-09-03T06:23:56.113Z,17.98
2022-09-03T06:24:56.081Z,18.07
2022-09-03T06:25:56.073Z,18.03
2022-09-03T06:26:56.067Z,18.16
2022-09-03T06:27:56.076Z,18.22
2022-09-03T06:28:56.082Z,18.17
2022-09-03T06:29:56.058Z,18.23
2022-09-03T06:30:56.063Z,18.29
2022-09-03T06:31:57.179Z,18.45
2022-09-03T06:32:56.079Z,18.41
2022-09-03T06:33:58.642Z,18.36
2022-09-03T06:34:56.268Z,18.54
2022-09-03T06:35:56.077Z,18.67
2022-09-03T06:36:56.171Z,18.73
2022-09-03T06:37:56.130Z,18.84
2022-09-03T06:38:56.361Z,18.83
2022-09-03T06:39:56.754Z,18.93
2022-09-03T06:40:56.498Z,19.1
2022-09-03T06:41:55.857Z,19.13
2022-09-03T06:42:56.249Z,18.98
2022-09-03T06:43:56.737Z,19.15
2022-09-03T06:44:56.077Z,19.37
2022-09-03T06:45:56.101Z,19.43
2022-09-03T06:46:56.069Z,19.24
2022-09-03T06:47:56.076Z,19.3
2022-09-03T06:48:56.076Z,19.52
2022-09-03T06:49:56.059Z,19.57
2022-09-03T06:50:56.069Z,19.55
2022-09-03T06:51:56.189Z,19.66
2022-09-03T06:52:56.093Z,19.66
2022-09-03T06:53:56.253Z,19.7
2022-09-03T06:54:56.305Z,19.86
2022-09-03T06:55:56.324Z,19.63
2022-09-03T06:56:56.453Z,19.68
2022-09-03T06:57:59.225Z,19.66
2022-09-03T06:58:56.275Z,19.54
2022-09-03T06:59:56.337Z,19.45
2022-09-03T07:00:56.697Z,19.33
2022-09-03T07:01:56.390Z,19.29
2022-09-03T07:02:56.066Z,19.2
2022-09-03T07:03:56.324Z,19.55
2022-09-03T07:04:56.121Z,19.66
2022-09-03T07:05:56.095Z,19.57
2022-09-03T07:06:56.072Z,19.48
2022-09-03T07:07:56.073Z,19.69
2022-09-03T07:08:56.080Z,19.78
2022-09-03T07:09:56.071Z,19.71
2022-09-03T07:10:56.075Z,19.79
2022-09-03T07:11:56.056Z,19.88
2022-09-03T07:12:56.127Z,20.02
2022-09-03T07:13:56.094Z,20.09
2022-09-03T07:14:56.094Z,20.11
2022-09-03T07:15:56.692Z,20.21
2022-09-03T07:16:56.635Z,20.1
2022-09-03T07:17:56.275Z,19.93
2022-09-03T07:18:56.549Z,19.8
2022-09-03T07:19:56.892Z,19.93
2022-09-03T07:20:56.621Z,19.98
2022-09-03T07:21:56.334Z,20.21
2022-09-03T07:22:56.086Z,20.42
2022-09-03T07:23:56.298Z,20.5
2022-09-03T07:24:56.605Z,20.58
2022-09-03T07:25:56.091Z,20.75
2022-09-03T07:26:56.157Z,21
2022-09-03T07:27:56.690Z,21.33
2022-09-03T07:28:56.721Z,21.68
2022-09-03T07:29:56.049Z,21.58
2022-09-03T07:30:56.321Z,21.63
2022-09-03T07:31:56.661Z,21.19
2022-09-03T07:32:57.084Z,21.1
2022-09-03T07:33:56.314Z,21.46
2022-09-03T07:34:56.368Z,21.59
2022-09-03T07:35:56.067Z,21.73
2022-09-03T07:36:56.285Z,21.68
2022-09-03T07:37:56.402Z,21.39
2022-09-03T07:38:56.065Z,21.45
2022-09-03T07:39:56.086Z,21.39
2022-09-03T07:40:56.044Z,21.57
2022-09-03T07:41:56.056Z,21.86
2022-09-03T07:42:56.069Z,21.96
2022-09-03T07:43:56.068Z,22.17
2022-09-03T07:44:56.083Z,22.28
2022-09-03T07:45:56.070Z,22.05
2022-09-03T07:46:56.196Z,21.65
2022-09-03T07:47:56.067Z,21.65
2022-09-03T07:48:56.103Z,21.64
2022-09-03T07:49:56.084Z,21.86
2022-09-03T07:50:56.064Z,21.81
2022-09-03T07:51:56.070Z,21.71
2022-09-03T07:52:56.104Z,21.31
2022-09-03T07:53:56.106Z,21.37
2022-09-03T07:54:56.091Z,21.47
2022-09-03T07:55:56.066Z,21.51
2022-09-03T07:56:57.573Z,21.89
2022-09-03T07:57:56.075Z,21.73
2022-09-03T07:58:56.062Z,21.67
2022-09-03T07:59:56.067Z,21.83
2022-09-03T08:00:56.103Z,21.66
2022-09-03T08:01:56.118Z,21.49
2022-09-03T08:02:57.069Z,21.58
2022-09-03T08:03:56.154Z,21.68
2022-09-03T08:04:56.066Z,21.55
2022-09-03T08:05:56.066Z,21.77
2022-09-03T08:06:56.093Z,21.87
2022-09-03T08:07:56.155Z,22.29
2022-09-03T08:08:57.261Z,22.64
2022-09-03T08:09:56.063Z,22.96
2022-09-03T08:10:56.065Z,22.9
2022-09-03T08:11:56.260Z,22.87
2022-09-03T08:12:56.066Z,22.73
2022-09-03T08:13:56.065Z,22.75
2022-09-03T08:14:56.068Z,23.03
2022-09-03T08:15:56.151Z,23.19
2022-09-03T08:16:56.090Z,23.2
2022-09-03T08:17:59.606Z,23.65
2022-09-03T08:18:56.184Z,24.05
2022-09-03T08:19:56.207Z,24.43
2022-09-03T08:20:56.068Z,24.75
2022-09-03T08:21:56.084Z,25.02
2022-09-03T08:22:56.071Z,25.13
2022-09-03T08:23:56.068Z,25.04
2022-09-03T08:24:56.062Z,25.26
2022-09-03T08:25:56.075Z,25.07
2022-09-03T08:26:56.091Z,25.2
2022-09-03T08:27:56.069Z,25.08
2022-09-03T08:28:56.074Z,24.91
2022-09-03T08:29:56.199Z,24.69
2022-09-03T08:30:56.168Z,24.72
2022-09-03T08:31:56.156Z,24.36
2022-09-03T08:32:56.094Z,23.94
2022-09-03T08:33:56.088Z,24.05
2022-09-03T08:34:56.073Z,23.91
2022-09-03T08:35:56.075Z,23.85
2022-09-03T08:36:57.111Z,23.57
2022-09-03T08:37:59.089Z,23.46
2022-09-03T08:38:56.089Z,23.31
2022-09-03T08:39:56.159Z,23.16
2022-09-03T08:40:56.279Z,22.99
2022-09-03T08:41:56.098Z,22.95
2022-09-03T08:42:56.097Z,23.03
2022-09-03T08:43:56.248Z,23.12
2022-09-03T08:44:56.086Z,23.09
2022-09-03T08:45:56.066Z,23.07
2022-09-03T08:46:56.212Z,22.99
2022-09-03T08:47:56.064Z,23.09
2022-09-03T08:48:56.275Z,23.15
2022-09-03T08:49:56.158Z,23.18
2022-09-03T08:50:56.184Z,23.04
2022-09-03T08:51:56.450Z,23.05
2022-09-03T08:52:56.548Z,23.1
2022-09-03T08:53:56.802Z,23.1
2022-09-03T08:54:56.306Z,23.1
2022-09-03T08:55:56.481Z,23.09
2022-09-03T08:56:56.570Z,23.13
2022-09-03T08:57:56.107Z,23.21
2022-09-03T08:58:56.348Z,23.26
2022-09-03T08:59:56.568Z,23.29
2022-09-03T09:00:56.065Z,23.34
2022-09-03T09:01:56.128Z,23.27
2022-09-03T09:02:56.153Z,23.16
2022-09-03T09:03:56.243Z,23.11
2022-09-03T09:04:56.106Z,23.15
2022-09-03T09:05:56.067Z,23.15
2022-09-03T09:06:56.173Z,23.14
2022-09-03T09:07:56.062Z,23.13
2022-09-03T09:08:56.107Z,23.07
2022-09-03T09:09:56.111Z,23.06
2022-09-03T09:10:56.099Z,23.04
2022-09-03T09:11:56.081Z,23.15
2022-09-03T09:12:56.070Z,23.16
2022-09-03T09:13:56.132Z,23.21
2022-09-03T09:14:56.086Z,23.2
2022-09-03T09:15:56.437Z,23.24
2022-09-03T09:16:56.090Z,23.31
2022-09-03T09:17:56.153Z,23.33
2022-09-03T09:18:56.108Z,23.41
2022-09-03T09:19:56.122Z,23.41
2022-09-03T09:20:56.097Z,23.5
2022-09-03T09:21:56.133Z,23.54
2022-09-03T09:22:56.081Z,23.62
2022-09-03T09:23:56.093Z,23.69
2022-09-03T09:24:56.106Z,23.68
2022-09-03T09:25:56.077Z,23.7
2022-09-03T09:26:56.205Z,23.58
2022-09-03T09:27:56.169Z,23.5
2022-09-03T09:28:56.084Z,23.52
2022-09-03T09:29:56.099Z,23.43
2022-09-03T09:30:56.127Z,23.34
2022-09-03T09:31:56.086Z,23.33
2022-09-03T09:32:56.124Z,23.37
2022-09-03T09:33:56.080Z,23.4
2022-09-03T09:34:56.089Z,23.3
2022-09-03T09:35:56.093Z,23.41
2022-09-03T09:36:56.113Z,23.47
2022-09-03T09:37:56.135Z,23.55
2022-09-03T09:38:56.100Z,23.54
2022-09-03T09:39:56.183Z,23.58
2022-09-03T09:40:56.094Z,23.66
2022-09-03T09:41:56.105Z,23.65
2022-09-03T09:42:56.117Z,23.66
2022-09-03T09:43:56.090Z,23.7
2022-09-03T09:44:56.104Z,23.76
2022-09-03T09:45:56.071Z,23.77
2022-09-03T09:46:56.155Z,23.78
2022-09-03T09:47:56.089Z,23.67
2022-09-03T09:48:56.110Z,23.75
2022-09-03T09:49:56.143Z,23.97
2022-09-03T09:50:56.132Z,24.21
2022-09-03T09:51:56.322Z,24.57
2022-09-03T09:53:00.182Z,24.88
2022-09-03T09:53:56.249Z,25
2022-09-03T09:54:56.457Z,24.92
2022-09-03T09:55:56.809Z,24.82
2022-09-03T09:56:56.687Z,24.71
2022-09-03T09:57:55.967Z,24.7
2022-09-03T09:58:56.261Z,24.78
2022-09-03T09:59:56.673Z,24.85
2022-09-03T10:00:56.141Z,24.91
2022-09-03T10:01:56.165Z,24.93
2022-09-03T10:02:56.226Z,25
2022-09-03T10:03:56.287Z,25.04
2022-09-03T10:04:56.500Z,24.99
2022-09-03T10:05:57.032Z,24.82
2022-09-03T10:06:56.525Z,24.62
2022-09-03T10:07:56.525Z,24.61
2022-09-03T10:08:56.174Z,24.67
2022-09-03T10:09:57.468Z,24.76
2022-09-03T10:10:56.115Z,24.89
2022-09-03T10:11:56.380Z,25.06
2022-09-03T10:12:56.112Z,25.28
2022-09-03T10:13:56.109Z,25.46
2022-09-03T10:14:56.121Z,25.78
2022-09-03T10:15:56.189Z,25.98
2022-09-03T10:16:56.146Z,26.29
2022-09-03T10:17:56.122Z,26.42
2022-09-03T10:18:56.309Z,26.48
2022-09-03T10:19:56.119Z,26.83
2022-09-03T10:20:56.123Z,26.98
2022-09-03T10:21:56.194Z,26.48
2022-09-03T10:22:57.530Z,26.61
2022-09-03T10:23:56.183Z,26.53
2022-09-03T10:24:56.325Z,25.93
2022-09-03T10:25:56.182Z,26.01
2022-09-03T10:26:56.233Z,25.79
2022-09-03T10:27:57.150Z,25.79
2022-09-03T10:28:57.316Z,26.15
2022-09-03T10:29:56.310Z,26
2022-09-03T10:30:56.409Z,26.27
2022-09-03T10:31:56.541Z,26.11
2022-09-03T10:32:56.305Z,26.08
2022-09-03T10:33:56.554Z,25.77
2022-09-03T10:34:56.517Z,26.27
2022-09-03T10:35:56.802Z,26.48
2022-09-03T10:36:56.493Z,26.91
2022-09-03T10:37:56.151Z,26.99
2022-09-03T10:38:56.338Z,27.09
2022-09-03T10:39:56.666Z,27.38
2022-09-03T10:40:56.349Z,27.51
2022-09-03T10:41:56.494Z,27.56
2022-09-03T10:42:56.541Z,26.92
2022-09-03T10:43:56.669Z,26.72
2022-09-03T10:44:57.010Z,26.5
2022-09-03T10:45:56.565Z,26.54
2022-09-03T10:46:56.209Z,26.45
2022-09-03T10:47:56.483Z,25.97
2022-09-03T10:48:56.789Z,25.5
2022-09-03T10:49:56.162Z,25.48
2022-09-03T10:50:56.169Z,25.45
2022-09-03T10:51:56.350Z,25.12
2022-09-03T10:52:56.170Z,24.88
2022-09-03T10:53:56.194Z,24.71
2022-09-03T10:54:56.319Z,24.66
2022-09-03T10:55:56.314Z,24.65
2022-09-03T10:56:56.193Z,24.75
2022-09-03T10:57:56.177Z,24.83
2022-09-03T10:58:56.157Z,24.96
2022-09-03T10:59:56.168Z,24.95
2022-09-03T11:00:56.151Z,25.09
2022-09-03T11:01:56.169Z,25.21
2022-09-03T11:02:56.199Z,25.28
2022-09-03T11:03:56.184Z,25.23
2022-09-03T11:04:56.198Z,25.36
2022-09-03T11:05:56.472Z,25.38
2022-09-03T11:06:56.353Z,25.36
2022-09-03T11:07:56.163Z,25.27
2022-09-03T11:08:56.170Z,25.21
2022-09-03T11:09:56.302Z,25.15
2022-09-03T11:10:56.184Z,24.99
2022-09-03T11:11:56.168Z,24.95
2022-09-03T11:12:56.165Z,24.99
2022-09-03T11:13:56.189Z,25.07
2022-09-03T11:14:56.196Z,25.14
2022-09-03T11:15:56.238Z,25.21
2022-09-03T11:16:56.190Z,25.27
2022-09-03T11:17:56.315Z,25.3
2022-09-03T11:18:56.199Z,25.39
2022-09-03T11:19:56.205Z,25.43
2022-09-03T11:20:56.154Z,25.45
2022-09-03T11:21:56.240Z,25.46
2022-09-03T11:22:56.176Z,25.43
2022-09-03T11:23:56.271Z,25.36
2022-09-03T11:24:56.196Z,25.37
2022-09-03T11:25:56.190Z,25.34
2022-09-03T11:26:56.194Z,25.33
2022-09-03T11:27:57.207Z,25.29
2022-09-03T11:28:56.324Z,25.27
2022-09-03T11:29:56.210Z,25.11
2022-09-03T11:30:56.244Z,25.06
2022-09-03T11:31:56.181Z,25.06
2022-09-03T11:32:56.188Z,25.09
2022-09-03T11:33:56.215Z,25.13
2022-09-03T11:34:56.226Z,25.13
2022-09-03T11:35:56.177Z,24.99
2022-09-03T11:36:56.191Z,25.01
2022-09-03T11:37:56.189Z,25.08
2022-09-03T11:38:56.205Z,25.14
2022-09-03T11:39:57.301Z,25.25
2022-09-03T11:40:56.325Z,25.29
2022-09-03T11:41:56.366Z,25.36
2022-09-03T11:42:56.228Z,25.32
2022-09-03T11:43:56.998Z,25.36
2022-09-03T11:44:56.200Z,25.33
2022-09-03T11:45:56.238Z,25.35
2022-09-03T11:46:56.206Z,25.27
2022-09-03T11:47:56.248Z,25.25
2022-09-03T11:48:56.216Z,25.22
2022-09-03T11:49:56.345Z,25.22
2022-09-03T11:50:56.218Z,25.24
2022-09-03T11:51:56.216Z,25.21
2022-09-03T11:52:56.244Z,25.19
2022-09-03T11:53:56.340Z,25.16
2022-09-03T11:54:56.096Z,25.22
2022-09-03T11:55:56.225Z,25.31
2022-09-03T11:56:56.206Z,25.4
2022-09-03T11:57:56.354Z,25.5
2022-09-03T11:58:56.234Z,25.61
2022-09-03T11:59:57.239Z,25.58
2022-09-03T12:00:56.263Z,25.51
2022-09-03T12:01:56.337Z,25.48
2022-09-03T12:02:59.356Z,25.46
2022-09-03T12:03:56.176Z,25.44
2022-09-03T12:04:56.448Z,25.53
2022-09-03T12:05:56.254Z,25.61
2022-09-03T12:06:57.112Z,25.79
2022-09-03T12:07:56.488Z,26.04
2022-09-03T12:08:56.766Z,26.11
2022-09-03T12:09:56.679Z,26.09
2022-09-03T12:10:56.937Z,26.22
2022-09-03T12:11:56.134Z,26.24
2022-09-03T12:12:57.476Z,26.23
2022-09-03T12:13:56.300Z,26.26
2022-09-03T12:14:56.230Z,26.31
2022-09-03T12:15:56.250Z,26.27
2022-09-03T12:16:56.524Z,26.14
2022-09-03T12:17:56.251Z,26.04
2022-09-03T12:18:56.342Z,25.78
2022-09-03T12:19:56.224Z,25.69
2022-09-03T12:20:56.312Z,25.49
2022-09-03T12:21:56.253Z,25.38
2022-09-03T12:22:56.086Z,25.26
2022-09-03T12:23:59.079Z,25.2
2022-09-03T12:24:56.494Z,25.15
2022-09-03T12:25:56.329Z,25.12
2022-09-03T12:26:56.303Z,25.12
2022-09-03T12:27:56.455Z,25.1
2022-09-03T12:28:56.115Z,25.07
2022-09-03T12:29:56.079Z,25.06
2022-09-03T12:30:56.106Z,25.03
2022-09-03T12:31:56.248Z,24.85
2022-09-03T12:32:56.307Z,24.83
2022-09-03T12:33:56.397Z,24.78
2022-09-03T12:34:56.264Z,24.76
2022-09-03T12:35:59.798Z,24.7
2022-09-03T12:36:56.290Z,24.68
2022-09-03T12:38:08.967Z,24.71
2022-09-03T12:39:11.764Z,24.73
2022-09-03T12:40:08.199Z,24.77
2022-09-03T12:41:27.189Z,24.78
2022-09-03T12:41:56.387Z,24.78
2022-09-03T12:43:36.925Z,24.72
2022-09-03T12:43:56.310Z,24.59
2022-09-03T12:44:56.278Z,24.57
2022-09-03T12:46:11.721Z,24.56
2022-09-03T12:47:56.311Z,24.64
2022-09-03T12:49:30.335Z,24.71
2022-09-03T12:49:56.246Z,24.77
2022-09-03T12:50:57.378Z,24.8
2022-09-03T12:52:03.240Z,24.85
2022-09-03T12:52:56.263Z,24.94
2022-09-03T12:53:56.257Z,25.08
2022-09-03T12:54:56.267Z,25.16
2022-09-03T12:55:56.266Z,25.27
2022-09-03T12:56:56.298Z,25.33
2022-09-03T12:58:02.483Z,25.44